Time;durP1;ratioP1;P1;durP2;ratioP2;P2;SDS_P1;SDS_P2;PMS_P1;PMS_P2;Temp;Humidity;BMP_temperature;BMP_pressure;BME280_temperature;BME280_humidity;BME280_pressure;Samples;Min_cycle;Max_cycle;Signal;HPM_P1;HPM_P2
2023/01/20 00:01:47;;;;;;;13.20;2.22;;;2.70;99.90;;;;;;4988926;28;20046;-58
2023/01/20 00:04:18;;;;;;;11.65;1.50;;;2.70;99.90;;;;;;4989188;28;20069;-60
2023/01/20 00:06:46;;;;;;;5.80;1.30;;;2.70;99.90;;;;;;4985936;28;20050;-60
2023/01/20 00:09:15;;;;;;;20.17;3.50;;;2.60;99.90;;;;;;4989180;28;20498;-58
2023/01/20 00:11:43;;;;;;;12.65;1.80;;;2.70;99.90;;;;;;4987903;28;20046;-59
2023/01/20 00:14:11;;;;;;;11.23;2.17;;;2.70;99.90;;;;;;4987324;28;20043;-61
2023/01/20 00:16:39;;;;;;;7.32;1.45;;;2.60;99.90;;;;;;4989887;28;20054;-62
2023/01/20 00:19:08;;;;;;;6.45;1.98;;;2.70;99.90;;;;;;4989120;28;20506;-61
2023/01/20 00:21:36;;;;;;;10.13;1.93;;;2.60;99.90;;;;;;5005249;28;20053;-64
2023/01/20 00:24:10;;;;;;;6.63;2.08;;;2.60;99.90;;;;;;4997468;28;20056;-64
2023/01/20 00:26:38;;;;;;;14.48;2.40;;;2.60;99.90;;;;;;4989548;28;20051;-64
2023/01/20 00:29:05;;;;;;;7.13;2.08;;;2.60;99.90;;;;;;4986292;28;20054;-63
2023/01/20 00:31:35;;;;;;;6.45;1.50;;;2.60;99.90;;;;;;4987642;28;20525;-63
2023/01/20 00:34:06;;;;;;;10.52;1.70;;;2.60;99.90;;;;;;4994914;28;20536;-61
2023/01/20 00:36:37;;;;;;;6.95;1.98;;;2.60;99.90;;;;;;4997795;28;20061;-65
2023/01/20 00:39:13;;;;;;;14.80;2.35;;;2.50;99.90;;;;;;5018385;28;20371;-63
2023/01/20 00:41:41;;;;;;;15.25;1.85;;;2.50;99.90;;;;;;4988554;28;20046;-64
2023/01/20 00:44:08;;;;;;;8.55;2.08;;;2.60;99.90;;;;;;4988676;28;20046;-65
2023/01/20 00:46:36;;;;;;;6.03;2.38;;;2.60;99.90;;;;;;4989636;28;20505;-66
2023/01/20 00:49:04;;;;;;;6.57;2.17;;;2.50;99.90;;;;;;4986667;28;20053;-62
2023/01/20 00:51:32;;;;;;;15.70;3.90;;;2.50;99.90;;;;;;5005505;28;20049;-64
2023/01/20 00:53:59;;;;;;;12.93;2.45;;;2.60;99.90;;;;;;4992705;28;20046;-66
2023/01/20 00:56:27;;;;;;;21.13;3.83;;;2.60;99.90;;;;;;4991582;28;20054;-67
2023/01/20 00:58:59;;;;;;;20.60;2.95;;;2.60;99.90;;;;;;4992116;28;20399;-64
2023/01/20 01:01:29;;;;;;;10.05;2.20;;;2.70;99.90;;;;;;4989919;28;20203;-61
2023/01/20 01:03:57;;;;;;;6.18;1.80;;;2.80;99.90;;;;;;4989462;28;20050;-63
2023/01/20 01:06:24;;;;;;;11.82;2.08;;;2.70;99.90;;;;;;4989227;28;20057;-59
2023/01/20 01:08:52;;;;;;;11.80;1.40;;;2.80;99.90;;;;;;4991327;28;20070;-63
2023/01/20 01:11:20;;;;;;;12.80;1.73;;;2.80;99.90;;;;;;4992361;28;20049;-60
2023/01/20 01:13:48;;;;;;;11.15;2.45;;;2.90;99.90;;;;;;5006470;28;20644;-60
2023/01/20 01:16:16;;;;;;;6.63;1.60;;;2.90;99.90;;;;;;4991444;28;20046;-63
2023/01/20 01:18:44;;;;;;;16.52;2.00;;;2.90;99.90;;;;;;4991735;28;20051;-65
2023/01/20 01:21:13;;;;;;;12.35;2.63;;;2.90;99.90;;;;;;4982410;28;20047;-66
2023/01/20 01:23:42;;;;;;;;;;;2.90;99.90;;;;;;4986874;28;20050;-61
2023/01/20 01:26:09;;;;;;;10.88;1.88;;;3.00;99.90;;;;;;5007338;28;19936;-63
2023/01/20 01:28:39;;;;;;;6.55;1.55;;;2.90;99.90;;;;;;4991627;28;20053;-66
2023/01/20 01:31:08;;;;;;;11.15;1.58;;;2.90;99.90;;;;;;4973227;28;20070;-66
2023/01/20 01:33:36;;;;;;;7.38;1.10;;;2.90;99.90;;;;;;4984914;28;20065;-63
2023/01/20 01:36:04;;;;;;;7.90;1.52;;;3.00;99.90;;;;;;4992766;28;20054;-61
2023/01/20 01:38:34;;;;;;;13.13;1.30;;;3.00;99.90;;;;;;4990836;28;20494;-61
2023/01/20 01:41:01;;;;;;;6.88;1.40;;;3.00;99.90;;;;;;4989393;28;20054;-63
2023/01/20 01:43:32;;;;;;;7.70;1.40;;;3.10;99.90;;;;;;4984160;28;20065;-64
2023/01/20 01:45:59;;;;;;;7.32;2.53;;;3.00;99.90;;;;;;4972860;28;20077;-64
2023/01/20 01:48:34;;;;;;;4.40;1.25;;;3.10;99.90;;;;;;4988195;28;20054;-64
2023/01/20 01:51:06;;;;;;;13.20;1.48;;;3.10;99.90;;;;;;5003168;28;20057;-64
2023/01/20 01:53:40;;;;;;;12.35;1.23;;;3.20;99.90;;;;;;4999976;28;20051;-64
2023/01/20 01:56:10;;;;;;;5.10;0.98;;;3.20;99.90;;;;;;4992080;28;20050;-66
2023/01/20 01:58:43;;;;;;;13.00;2.40;;;3.30;99.90;;;;;;5023839;28;20042;-65
2023/01/20 02:01:12;;;;;;;12.75;1.63;;;3.30;99.90;;;;;;4979047;28;20046;-65
2023/01/20 02:03:54;;;;;;;15.13;1.98;;;3.40;99.90;;;;;;4991264;28;20051;-66
2023/01/20 02:06:25;;;;;;;4.43;0.85;;;3.40;99.90;;;;;;5011320;28;20046;-65
2023/01/20 02:08:53;;;;;;;6.57;2.20;;;3.40;99.90;;;;;;5007272;28;20469;-62
2023/01/20 02:11:21;;;;;;;9.13;1.30;;;3.50;99.90;;;;;;4991318;28;20053;-64
2023/01/20 02:13:49;;;;;;;16.08;2.00;;;3.50;99.90;;;;;;4991041;28;20045;-65
2023/01/20 02:16:19;;;;;;;16.40;1.60;;;3.50;99.90;;;;;;4991690;28;20490;-65
2023/01/20 02:19:19;;;;;;;11.15;1.35;;;3.60;99.90;;;;;;4991385;28;20046;-65
2023/01/20 02:22:15;;;;;;;11.13;2.33;;;3.60;99.90;;;;;;5009253;28;20041;-59
2023/01/20 02:25:12;;;;;;;8.13;1.83;;;3.60;99.90;;;;;;4983318;28;20065;-60
2023/01/20 02:27:55;;;;;;;9.05;1.33;;;3.60;99.90;;;;;;4984376;28;20053;-59
2023/01/20 02:31:10;;;;;;;13.77;1.42;;;3.50;99.90;;;;;;4991169;28;20057;-60
2023/01/20 02:34:07;;;;;;;7.18;1.63;;;3.50;99.90;;;;;;4981202;28;20073;-62
2023/01/20 02:36:55;;;;;;;11.77;1.40;;;3.50;99.90;;;;;;4991341;28;20053;-60
2023/01/20 02:39:52;;;;;;;12.88;1.98;;;3.50;99.90;;;;;;4991415;28;20047;-60
2023/01/20 02:42:46;;;;;;;7.07;1.25;;;3.50;99.90;;;;;;4991402;28;20062;-60
2023/01/20 02:45:26;;;;;;;7.25;1.25;;;3.50;99.90;;;;;;4991692;28;20047;-59
2023/01/20 02:48:02;;;;;;;7.22;1.00;;;3.40;99.90;;;;;;5023031;28;20039;-59
2023/01/20 02:50:50;;;;;;;8.00;1.30;;;3.40;99.90;;;;;;4987728;28;20050;-64
2023/01/20 02:53:19;;;;;;;10.43;1.63;;;3.40;99.90;;;;;;4992425;28;20498;-62
2023/01/20 02:55:48;;;;;;;9.23;2.17;;;3.30;99.90;;;;;;4992935;28;20053;-65
2023/01/20 02:58:24;;;;;;;10.15;1.17;;;3.30;99.90;;;;;;4990200;28;20046;-63
2023/01/20 03:01:02;;;;;;;11.07;1.40;;;3.30;99.90;;;;;;4991388;28;20042;-66
2023/01/20 03:03:36;;;;;;;15.77;1.67;;;3.30;99.90;;;;;;4991192;28;20054;-61
2023/01/20 03:06:09;;;;;;;8.55;1.30;;;3.30;99.90;;;;;;4990891;28;20046;-63
2023/01/20 03:08:39;;;;;;;8.68;1.58;;;3.20;99.90;;;;;;4992565;28;20051;-61
2023/01/20 03:11:07;;;;;;;;;;;3.20;99.90;;;;;;4993050;28;20061;-64
2023/01/20 03:14:06;;;;;;;8.90;1.60;;;3.20;99.90;;;;;;4988312;28;19921;-64
2023/01/20 03:16:34;;;;;;;14.57;1.88;;;3.20;99.90;;;;;;4991429;28;20047;-59
2023/01/20 03:19:01;;;;;;;8.18;1.67;;;3.10;99.90;;;;;;5021585;28;20058;-64
2023/01/20 03:21:29;;;;;;;11.02;1.40;;;3.10;99.90;;;;;;5007586;28;20046;-59
2023/01/20 03:24:00;;;;;;;11.05;1.65;;;3.10;99.90;;;;;;4998478;28;20061;-60
2023/01/20 03:26:29;;;;;;;11.48;1.73;;;3.10;99.90;;;;;;4990537;28;20046;-60
2023/01/20 03:28:58;;;;;;;10.63;1.80;;;3.10;99.90;;;;;;4992305;28;20069;-61
2023/01/20 03:31:33;;;;;;;6.45;1.50;;;3.10;99.90;;;;;;4992074;28;20061;-62
2023/01/20 03:34:11;;;;;;;12.63;1.20;;;3.10;99.90;;;;;;4991421;28;20038;-59
2023/01/20 03:36:42;;;;;;;6.95;1.58;;;3.10;99.90;;;;;;4990792;28;20038;-65
2023/01/20 03:39:10;;;;;;;11.27;1.92;;;3.10;99.90;;;;;;4991453;28;20049;-66
2023/01/20 03:41:56;;;;;;;6.60;1.33;;;3.10;99.90;;;;;;4991352;28;20042;-66
2023/01/20 03:44:50;;;;;;;7.90;1.38;;;3.10;99.90;;;;;;4991426;28;20054;-65
2023/01/20 03:47:23;;;;;;;5.07;0.88;;;3.10;99.90;;;;;;4987190;28;20046;-61
2023/01/20 03:50:27;;;;;;;13.18;1.55;;;3.10;99.90;;;;;;4987400;28;20065;-64
2023/01/20 03:53:04;;;;;;;17.63;1.25;;;3.10;99.90;;;;;;5007067;28;20050;-66
2023/01/20 03:55:49;;;;;;;10.55;1.25;;;3.00;99.90;;;;;;4991195;28;20046;-61
2023/01/20 03:58:22;;;;;;;9.18;1.38;;;3.00;99.90;;;;;;4991875;28;20651;-64
2023/01/20 04:00:51;;;;;;;8.88;1.35;;;2.90;99.90;;;;;;4990137;28;20044;-66
2023/01/20 04:03:24;;;;;;;10.82;1.77;;;2.90;99.90;;;;;;4989933;28;20506;-65
2023/01/20 04:05:53;;;;;;;9.43;1.25;;;2.90;99.90;;;;;;4991826;28;20050;-66
2023/01/20 04:08:26;;;;;;;8.10;1.63;;;2.90;99.90;;;;;;4991149;28;20401;-66
2023/01/20 04:10:56;;;;;;;5.38;1.17;;;2.90;99.90;;;;;;4991922;28;20050;-64
2023/01/20 04:13:27;;;;;;;8.75;1.50;;;2.90;99.90;;;;;;4990355;28;20046;-62
2023/01/20 04:15:56;;;;;;;8.15;1.33;;;2.90;99.90;;;;;;4971170;28;20050;-61
2023/01/20 04:18:24;;;;;;;12.60;1.63;;;2.90;99.90;;;;;;4988703;28;20039;-64
2023/01/20 04:21:00;;;;;;;8.93;2.03;;;2.90;99.90;;;;;;4994402;28;20600;-63
2023/01/20 04:23:54;;;;;;;3.88;1.25;;;2.90;99.90;;;;;;4990144;28;20046;-65
2023/01/20 04:26:21;;;;;;;4.93;1.08;;;2.90;99.90;;;;;;4991853;28;20038;-64
2023/01/20 04:28:49;;;;;;;8.25;1.13;;;2.90;99.90;;;;;;4995136;28;20046;-60
2023/01/20 04:31:17;;;;;;;7.78;1.05;;;2.90;99.90;;;;;;4994386;28;20502;-61
2023/01/20 04:33:57;;;;;;;4.82;0.98;;;2.90;99.90;;;;;;4994727;28;20053;-65
2023/01/20 04:36:24;;;;;;;11.23;2.15;;;2.90;99.90;;;;;;4993740;28;20055;-64
2023/01/20 04:38:52;;;;;;;10.05;1.15;;;2.90;99.90;;;;;;4994487;28;20054;-66
2023/01/20 04:41:20;;;;;;;9.35;1.52;;;2.90;99.90;;;;;;4994610;28;20065;-61
2023/01/20 04:43:47;;;;;;;12.20;1.83;;;3.00;99.90;;;;;;4994831;28;20055;-63
2023/01/20 04:46:15;;;;;;;6.28;1.13;;;2.90;99.90;;;;;;4993581;28;20042;-65
2023/01/20 04:48:44;;;;;;;11.57;1.02;;;3.00;99.90;;;;;;4993363;28;20057;-67
2023/01/20 04:51:14;;;;;;;6.65;0.93;;;3.00;99.90;;;;;;4999769;28;20047;-62
2023/01/20 04:53:41;;;;;;;6.45;1.02;;;3.00;99.90;;;;;;4994801;28;20059;-63
2023/01/20 04:56:11;;;;;;;9.80;1.25;;;3.00;99.90;;;;;;4994372;28;20053;-63
2023/01/20 04:58:39;;;;;;;11.63;1.42;;;3.00;99.90;;;;;;4994501;28;20050;-60
2023/01/20 05:01:07;;;;;;;5.72;0.85;;;3.00;99.90;;;;;;4992579;28;20511;-61
2023/01/20 05:03:35;;;;;;;12.77;1.13;;;3.00;99.90;;;;;;4994549;28;20389;-61
2023/01/20 05:06:05;;;;;;;12.48;1.17;;;3.00;99.90;;;;;;5006744;28;20066;-59
2023/01/20 05:08:32;;;;;;;11.02;1.65;;;3.00;99.90;;;;;;4994429;28;20065;-59
2023/01/20 05:11:00;;;;;;;4.57;1.25;;;3.00;99.90;;;;;;4992878;28;20047;-60
2023/01/20 05:13:28;;;;;;;5.18;1.00;;;3.00;99.90;;;;;;5026147;28;20058;-61
2023/01/20 05:15:56;;;;;;;6.25;1.00;;;3.00;99.90;;;;;;4993229;28;20042;-62
2023/01/20 05:18:27;;;;;;;10.00;2.17;;;3.00;99.90;;;;;;4992855;28;20417;-63
2023/01/20 05:20:55;;;;;;;10.45;1.60;;;3.00;99.90;;;;;;5004561;28;20166;-63
2023/01/20 05:23:22;;;;;;;7.55;1.00;;;3.00;99.90;;;;;;4996613;28;20406;-59
2023/01/20 05:25:51;;;;;;;9.27;0.93;;;3.00;99.90;;;;;;4993460;28;20417;-61
2023/01/20 05:28:19;;;;;;;4.43;0.90;;;3.00;99.90;;;;;;4992766;28;20034;-63
2023/01/20 05:30:47;;;;;;;10.27;1.45;;;3.00;99.90;;;;;;4994347;28;20066;-64
2023/01/20 05:33:16;;;;;;;7.53;1.17;;;2.90;99.90;;;;;;5006983;28;20043;-61
2023/01/20 05:35:43;;;;;;;7.00;1.00;;;2.90;99.90;;;;;;4993498;28;20054;-66
2023/01/20 05:38:13;;;;;;;5.75;1.33;;;2.90;99.90;;;;;;4992654;28;20050;-64
2023/01/20 05:40:41;;;;;;;6.30;1.25;;;2.90;99.90;;;;;;4994130;28;20058;-62
2023/01/20 05:43:08;;;;;;;14.15;1.52;;;2.90;99.90;;;;;;4991388;28;20081;-63
2023/01/20 05:45:41;;;;;;;8.68;1.55;;;2.90;99.90;;;;;;4992953;28;20042;-60
2023/01/20 05:48:08;;;;;;;10.43;1.42;;;2.90;99.90;;;;;;4988000;28;20034;-59
2023/01/20 05:50:36;;;;;;;11.10;1.65;;;2.90;99.90;;;;;;4984485;28;20058;-59
2023/01/20 05:53:03;;;;;;;6.55;0.95;;;2.90;99.90;;;;;;4985549;28;20049;-59
2023/01/20 05:55:31;;;;;;;13.05;2.17;;;2.80;99.90;;;;;;4989089;28;20410;-62
2023/01/20 05:58:03;;;;;;;8.20;1.80;;;2.80;99.90;;;;;;4998768;28;20046;-60
2023/01/20 06:00:31;;;;;;;8.65;0.98;;;2.80;99.90;;;;;;4991311;28;20057;-59
2023/01/20 06:02:59;;;;;;;10.75;1.20;;;2.80;99.90;;;;;;4986747;28;20050;-60
2023/01/20 06:05:27;;;;;;;15.00;0.82;;;2.80;99.90;;;;;;4988560;28;20406;-60
2023/01/20 06:07:55;;;;;;;4.85;0.57;;;2.70;99.90;;;;;;4994305;28;20501;-62
2023/01/20 06:10:26;;;;;;;14.02;1.50;;;2.80;99.90;;;;;;5008067;28;20042;-61
2023/01/20 06:12:56;;;;;;;24.70;3.20;;;2.80;99.90;;;;;;4994635;28;20046;-60
2023/01/20 06:15:24;;;;;;;7.35;1.10;;;2.70;99.90;;;;;;4987579;28;20065;-60
2023/01/20 06:17:54;;;;;;;8.32;1.38;;;2.70;99.90;;;;;;4996079;28;20065;-65
2023/01/20 06:20:22;;;;;;;;;;;2.70;99.90;;;;;;4998167;28;20053;-64
2023/01/20 06:22:53;;;;;;;13.52;1.40;;;2.70;99.90;;;;;;4993505;28;19921;-66
2023/01/20 06:25:21;;;;;;;11.98;1.50;;;2.70;99.90;;;;;;4990842;28;20055;-64
2023/01/20 06:27:49;;;;;;;11.65;2.25;;;2.60;99.90;;;;;;4994668;28;20048;-63
2023/01/20 06:30:17;;;;;;;12.00;0.90;;;2.70;99.90;;;;;;5002023;28;20046;-65
2023/01/20 06:32:50;;;;;;;7.13;1.08;;;2.70;99.90;;;;;;5021395;28;20046;-65
2023/01/20 06:35:18;;;;;;;9.15;1.23;;;2.70;99.90;;;;;;4988269;28;20054;-65
2023/01/20 06:37:46;;;;;;;7.68;1.70;;;2.60;99.90;;;;;;4996187;28;20042;-66
2023/01/20 06:40:14;;;;;;;9.70;1.45;;;2.50;99.90;;;;;;5007053;28;20053;-65
2023/01/20 06:42:42;;;;;;;6.73;1.10;;;2.50;99.90;;;;;;4988158;28;20047;-65
2023/01/20 06:45:15;;;;;;;8.60;1.00;;;2.40;99.90;;;;;;4988393;28;20050;-61
2023/01/20 06:47:48;;;;;;;6.57;1.05;;;2.40;99.90;;;;;;4984813;28;20043;-63
2023/01/20 06:50:16;;;;;;;12.75;1.60;;;2.40;99.90;;;;;;4985147;28;20057;-60
2023/01/20 06:52:43;;;;;;;9.68;2.30;;;2.30;99.90;;;;;;4995526;28;20486;-60
2023/01/20 06:55:11;;;;;;;7.60;2.00;;;;;;;;;;4991081;28;20065;-61
2023/01/20 06:57:40;;;;;;;;;;;2.30;99.90;;;;;;4991626;28;20286;-59
2023/01/20 07:00:10;;;;;;;4.70;1.20;;;2.30;99.90;;;;;;4989677;28;19922;-60
2023/01/20 07:02:37;;;;;;;5.90;1.45;;;2.30;99.90;;;;;;4987139;28;20061;-59
2023/01/20 07:05:07;;;;;;;8.98;1.52;;;2.30;99.90;;;;;;4987651;28;20054;-61
2023/01/20 07:07:35;;;;;;;13.23;1.35;;;2.30;99.90;;;;;;4989321;28;20050;-61
2023/01/20 07:10:03;;;;;;;5.78;1.02;;;2.20;99.90;;;;;;4988397;28;20628;-65
2023/01/20 07:12:34;;;;;;;13.85;1.45;;;2.20;99.90;;;;;;4989606;28;20572;-62
2023/01/20 07:15:02;;;;;;;8.38;2.03;;;2.20;99.90;;;;;;4979766;28;20046;-64
2023/01/20 07:17:30;;;;;;;10.27;3.00;;;2.10;99.90;;;;;;4982157;28;20041;-58
2023/01/20 07:19:57;;;;;;;18.33;3.50;;;2.10;99.90;;;;;;4992732;28;20046;-63
2023/01/20 07:22:25;;;;;;;23.33;6.40;;;2.00;99.90;;;;;;4999829;28;20046;-62
2023/01/20 07:24:53;;;;;;;20.67;6.10;;;2.00;99.90;;;;;;4989570;28;20053;-59
2023/01/20 07:27:21;;;;;;;26.70;6.25;;;2.00;99.90;;;;;;4992167;28;20053;-62
2023/01/20 07:29:52;;;;;;;18.73;6.00;;;2.00;99.90;;;;;;5005528;28;20034;-59
2023/01/20 07:32:21;;;;;;;27.52;7.13;;;2.10;99.90;;;;;;4987279;28;20065;-59
2023/01/20 07:34:49;;;;;;;29.80;8.07;;;2.20;99.90;;;;;;4984789;28;20046;-62
2023/01/20 07:37:16;;;;;;;31.52;10.07;;;2.20;99.90;;;;;;4986926;28;20046;-60
2023/01/20 07:39:48;;;;;;;21.45;6.10;;;2.30;99.90;;;;;;4964074;28;20065;-60
2023/01/20 07:42:16;;;;;;;22.30;5.95;;;2.20;99.90;;;;;;4972233;28;20070;-63
2023/01/20 07:44:44;;;;;;;25.50;7.60;;;2.20;99.90;;;;;;4976230;28;20047;-59
2023/01/20 07:47:11;;;;;;;20.58;6.22;;;2.00;99.90;;;;;;4971386;28;20794;-59
2023/01/20 07:49:39;;;;;;;18.85;5.22;;;2.00;99.90;;;;;;4972904;28;20601;-58
2023/01/20 07:52:07;;;;;;;8.95;3.13;;;2.00;99.90;;;;;;4981498;28;20049;-59
2023/01/20 07:54:38;;;;;;;8.80;2.80;;;1.90;99.90;;;;;;4972329;28;20491;-58
2023/01/20 07:57:08;;;;;;;9.55;2.72;;;1.90;99.90;;;;;;4970517;28;20051;-59
2023/01/20 07:59:36;;;;;;;9.07;2.88;;;1.90;99.90;;;;;;4972830;28;20070;-59
2023/01/20 08:02:08;;;;;;;8.70;2.10;;;1.90;99.90;;;;;;4978773;28;20042;-60
2023/01/20 08:04:36;;;;;;;10.55;2.10;;;1.90;99.90;;;;;;4992894;28;20074;-58
2023/01/20 08:07:04;;;;;;;11.13;2.15;;;1.90;99.90;;;;;;4988802;28;20061;-60
2023/01/20 08:09:32;;;;;;;7.75;1.33;;;1.90;99.90;;;;;;4984181;28;20114;-60
2023/01/20 08:12:01;;;;;;;2.83;1.13;;;1.90;99.90;;;;;;4978460;28;20061;-59
2023/01/20 08:14:28;;;;;;;5.90;1.70;;;2.00;99.90;;;;;;4990290;28;20046;-65
2023/01/20 08:16:56;;;;;;;15.07;1.77;;;2.00;99.90;;;;;;4993660;28;20050;-61
2023/01/20 08:19:27;;;;;;;13.02;1.48;;;2.00;99.90;;;;;;5022220;28;20046;-65
2023/01/20 08:21:55;;;;;;;7.75;2.17;;;2.00;99.90;;;;;;4986098;28;20050;-66
2023/01/20 08:24:25;;;;;;;12.15;3.33;;;2.00;99.90;;;;;;4980375;28;20688;-66
2023/01/20 08:26:53;;;;;;;11.73;2.20;;;2.10;99.90;;;;;;4993569;28;20414;-67
2023/01/20 08:29:22;;;;;;;11.25;3.97;;;2.10;99.90;;;;;;5000406;28;20973;-65
2023/01/20 08:31:49;;;;;;;4.10;2.03;;;2.10;99.90;;;;;;4992841;28;20057;-63
2023/01/20 08:34:19;;;;;;;9.25;1.70;;;2.20;99.90;;;;;;4994169;28;20239;-60
2023/01/20 08:36:48;;;;;;;7.50;2.22;;;2.20;99.90;;;;;;4992097;28;20042;-62
2023/01/20 08:39:17;;;;;;;12.70;4.15;;;2.20;99.90;;;;;;4984417;28;20051;-63
2023/01/20 08:41:46;;;;;;;9.17;3.17;;;2.30;99.90;;;;;;4987316;28;20049;-65
2023/01/20 08:44:16;;;;;;;14.20;4.27;;;2.30;99.90;;;;;;4995785;28;20054;-61
2023/01/20 08:46:44;;;;;;;17.77;5.32;;;2.40;99.90;;;;;;4977260;28;20081;-67
2023/01/20 08:49:15;;;;;;;21.80;5.55;;;2.40;99.90;;;;;;4992175;28;20608;-64
2023/01/20 08:51:43;;;;;;;19.95;3.80;;;2.40;99.90;;;;;;5004462;28;20397;-64
2023/01/20 08:54:13;;;;;;;6.90;2.60;;;2.40;99.90;;;;;;4996256;28;20050;-64
2023/01/20 08:56:41;;;;;;;13.40;2.63;;;2.30;99.90;;;;;;4994800;28;20054;-65
2023/01/20 08:59:10;;;;;;;12.15;3.15;;;2.30;99.90;;;;;;5000365;28;20814;-65
2023/01/20 09:01:43;;;;;;;4.88;1.83;;;2.30;99.90;;;;;;4992938;28;20047;-65
2023/01/20 09:04:11;;;;;;;11.00;2.60;;;2.30;99.90;;;;;;4994302;28;20615;-65
2023/01/20 09:06:48;;;;;;;8.75;2.25;;;2.30;99.90;;;;;;4994674;28;20050;-64
2023/01/20 09:09:21;;;;;;;13.77;2.40;;;2.30;99.90;;;;;;4995712;28;20049;-62
2023/01/20 09:11:52;;;;;;;13.05;1.85;;;2.30;99.90;;;;;;4994729;28;20046;-63
2023/01/20 09:14:24;;;;;;;8.63;1.98;;;2.30;99.90;;;;;;4991801;28;20046;-64
2023/01/20 09:16:57;;;;;;;12.57;3.50;;;2.40;99.90;;;;;;4992109;28;20047;-63
2023/01/20 09:19:25;;;;;;;13.93;3.72;;;2.40;99.90;;;;;;5004193;28;20058;-65
2023/01/20 09:21:53;;;;;;;24.60;8.27;;;2.40;99.90;;;;;;4986743;28;20050;-64
2023/01/20 09:24:21;;;;;;;12.65;3.40;;;2.50;99.90;;;;;;4991330;28;20046;-63
2023/01/20 09:26:50;;;;;;;16.88;2.85;;;2.50;99.90;;;;;;4988745;28;20537;-63
2023/01/20 09:29:19;;;;;;;10.80;3.00;;;2.50;99.90;;;;;;4989204;28;20046;-61
2023/01/20 09:31:56;;;;;;;12.65;3.00;;;2.60;99.90;;;;;;4989180;28;20406;-63
2023/01/20 09:34:28;;;;;;;8.52;2.50;;;4.90;99.90;;;;;;4991043;28;20054;-65
2023/01/20 09:43:52;;;;;;;13.70;2.28;;;2.70;99.90;;;;;;4992001;28;20058;-59
2023/01/20 09:45:59;;;;;;;11.73;3.03;;;2.80;99.90;;;;;;4972709;28;20093;-61
2023/01/20 09:55:03;;;;;;;7.88;1.90;;;2.90;99.90;;;;;;4991774;28;20050;-64
2023/01/20 09:57:36;;;;;;;19.75;2.60;;;2.90;99.90;;;;;;4989058;28;20505;-60
2023/01/20 10:00:15;;;;;;;11.00;2.63;;;3.00;99.90;;;;;;4981721;28;20042;-63
2023/01/20 10:02:49;;;;;;;12.52;2.58;;;3.20;99.90;;;;;;4990613;28;20053;-65
2023/01/20 10:05:31;;;;;;;18.20;2.53;;;3.20;99.90;;;;;;4991805;28;20499;-62
2023/01/20 10:08:38;;;;;;;13.43;2.55;;;3.20;99.90;;;;;;4994634;28;20042;-66
2023/01/20 10:11:10;;;;;;;7.38;2.40;;;3.30;99.90;;;;;;5006287;28;20053;-65
2023/01/20 10:13:54;;;;;;;9.48;2.97;;;3.30;99.90;;;;;;5000733;28;20061;-64
2023/01/20 10:16:54;;;;;;;15.73;2.95;;;3.30;99.90;;;;;;4991963;28;20076;-66
2023/01/20 10:19:34;;;;;;;14.57;2.92;;;3.40;99.90;;;;;;5009301;28;20053;-64
2023/01/20 10:22:15;;;;;;;16.20;2.55;;;3.30;99.90;;;;;;5009189;28;20467;-61
2023/01/20 10:24:59;;;;;;;14.07;3.50;;;3.40;99.90;;;;;;4988003;28;20050;-64
2023/01/20 10:27:30;;;;;;;13.15;2.72;;;3.40;99.90;;;;;;4991434;28;20066;-65
2023/01/20 10:30:07;;;;;;;9.80;3.03;;;3.50;99.90;;;;;;4990656;28;20049;-65
2023/01/20 10:32:49;;;;;;;8.50;2.22;;;3.50;99.90;;;;;;4994199;28;20052;-65
2023/01/20 10:35:20;;;;;;;11.75;2.60;;;3.60;99.90;;;;;;5011006;28;20054;-65
2023/01/20 10:37:48;;;;;;;10.00;3.42;;;3.60;99.90;;;;;;4984261;28;20049;-66
2023/01/20 10:40:43;;;;;;;12.93;2.85;;;3.60;99.90;;;;;;4972011;28;20540;-65
2023/01/20 10:43:16;;;;;;;11.65;2.38;;;3.70;99.90;;;;;;4987062;28;20520;-61
2023/01/20 10:46:02;;;;;;;14.05;4.65;;;3.70;99.90;;;;;;4972093;28;20051;-62
2023/01/20 10:49:00;;;;;;;8.10;2.60;;;3.80;99.90;;;;;;4982512;28;20069;-60
2023/01/20 10:51:46;;;;;;;8.55;3.30;;;3.80;99.90;;;;;;5006283;28;20037;-64
2023/01/20 10:54:53;;;;;;;12.10;3.20;;;3.90;99.90;;;;;;4989043;28;20061;-65
2023/01/20 10:57:22;;;;;;;9.15;2.78;;;4.00;99.90;;;;;;4978940;28;20062;-65
2023/01/20 10:59:53;;;;;;;8.65;2.95;;;4.20;99.90;;;;;;4990307;28;20045;-65
2023/01/20 11:02:27;;;;;;;8.77;3.10;;;4.20;99.90;;;;;;4975671;28;20046;-64
2023/01/20 11:05:01;;;;;;;11.75;3.50;;;4.30;99.90;;;;;;4989896;28;20038;-66
2023/01/20 11:07:32;;;;;;;8.60;3.88;;;4.30;99.90;;;;;;4989216;28;20057;-65
2023/01/20 11:10:16;;;;;;;13.10;3.38;;;4.40;99.90;;;;;;4988229;28;20046;-65
2023/01/20 11:12:47;;;;;;;17.15;3.40;;;4.50;99.90;;;;;;4990737;28;20061;-66
2023/01/20 11:15:18;;;;;;;11.00;3.80;;;4.60;99.90;;;;;;4973582;28;20039;-65
2023/01/20 11:18:06;;;;;;;19.23;4.60;;;4.80;99.90;;;;;;4985078;28;20643;-63
2023/01/20 11:20:35;;;;;;;13.18;4.50;;;4.80;99.90;;;;;;4998586;28;20394;-64
2023/01/20 11:23:03;;;;;;;11.15;3.50;;;5.10;99.90;;;;;;4992580;28;20046;-62
2023/01/20 11:25:31;;;;;;;10.10;3.50;;;5.10;99.90;;;;;;4990278;28;20402;-63
2023/01/20 11:28:01;;;;;;;10.93;4.00;;;5.30;99.90;;;;;;4995954;28;20493;-64
2023/01/20 11:30:32;;;;;;;7.28;3.65;;;5.50;99.90;;;;;;4988492;28;20533;-65
2023/01/20 11:33:25;;;;;;;6.88;2.47;;;5.50;99.90;;;;;;4990084;28;20046;-63
2023/01/20 11:36:20;;;;;;;8.23;2.20;;;5.80;99.90;;;;;;4989866;28;20494;-65
2023/01/20 11:38:49;;;;;;;13.52;3.08;;;6.20;99.90;;;;;;4997756;28;20046;-64
2023/01/20 11:41:26;;;;;;;14.07;2.22;;;6.20;99.90;;;;;;4989447;28;20045;-65
2023/01/20 11:43:58;;;;;;;5.88;2.08;;;6.40;99.90;;;;;;4988646;28;20061;-64
2023/01/20 11:46:32;;;;;;;10.07;2.70;;;6.60;99.90;;;;;;4990637;28;20590;-65
2023/01/20 11:49:13;;;;;;;9.10;2.40;;;6.80;99.90;;;;;;4996142;28;20637;-61
2023/01/20 11:52:00;;;;;;;7.28;1.98;;;7.00;99.90;;;;;;4989065;28;20062;-60
2023/01/20 11:54:29;;;;;;;7.20;1.95;;;7.20;99.90;;;;;;4988283;28;20054;-60
2023/01/20 11:57:03;;;;;;;11.02;2.40;;;7.30;99.90;;;;;;4990123;28;20045;-59
2023/01/20 11:59:34;;;;;;;9.55;2.55;;;7.40;99.90;;;;;;4994178;28;20047;-63
2023/01/20 12:02:07;;;;;;;10.15;2.78;;;7.60;99.90;;;;;;4990316;28;20054;-60
2023/01/20 12:04:41;;;;;;;14.73;3.58;;;7.80;99.90;;;;;;4988048;28;20410;-59
2023/01/20 12:07:20;;;;;;;12.52;2.60;;;8.00;99.90;;;;;;4987337;28;20165;-63
2023/01/20 12:09:53;;;;;;;11.88;1.80;;;8.40;99.90;;;;;;4981891;28;20046;-58
2023/01/20 12:12:38;;;;;;;10.75;2.10;;;8.60;99.90;;;;;;5021584;28;20109;-59
2023/01/20 12:15:09;;;;;;;9.57;3.03;;;8.90;99.90;;;;;;4990149;28;20046;-61
2023/01/20 12:17:57;;;;;;;4.03;2.05;;;9.10;99.90;;;;;;4987530;28;20473;-63
2023/01/20 12:20:25;;;;;;;12.05;2.40;;;9.50;99.90;;;;;;4987257;28;20069;-63
2023/01/20 12:23:19;;;;;;;9.18;1.75;;;9.50;99.90;;;;;;4984918;28;20050;-62
2023/01/20 12:26:17;;;;;;;13.70;1.70;;;9.60;99.90;;;;;;4989173;28;20046;-59
2023/01/20 12:28:54;;;;;;;5.82;1.50;;;9.90;99.90;;;;;;4983219;28;20517;-63
2023/01/20 12:31:23;;;;;;;5.53;1.90;;;10.20;99.90;;;;;;4989732;28;20058;-58
2023/01/20 12:34:12;;;;;;;8.57;1.80;;;10.60;99.90;;;;;;4988594;28;20402;-58
2023/01/20 12:37:17;;;;;;;5.28;1.63;;;10.80;99.90;;;;;;4978307;28;20042;-59
2023/01/20 12:40:03;;;;;;;9.90;2.08;;;10.80;99.90;;;;;;4978475;28;20054;-61
2023/01/20 12:43:08;;;;;;;7.10;1.52;;;11.20;99.90;;;;;;4973360;28;20054;-59
2023/01/20 12:45:56;;;;;;;6.20;1.60;;;11.40;99.90;;;;;;4988890;28;20054;-60
2023/01/20 12:48:24;;;;;;;6.22;1.48;;;11.80;99.90;;;;;;4992979;28;20042;-65
2023/01/20 12:51:20;;;;;;;6.80;1.15;;;11.90;99.90;;;;;;4995835;28;20042;-61
2023/01/20 12:54:00;;;;;;;10.23;1.48;;;12.10;99.90;;;;;;4990899;28;20046;-59
2023/01/20 12:57:10;;;;;;;6.55;1.38;;;12.30;99.90;;;;;;4987589;28;20505;-64
2023/01/20 12:59:44;;;;;;;;;;;12.50;99.90;;;;;;4992423;28;20046;-61
2023/01/20 13:02:25;;;;;;;2.92;1.30;;;12.80;99.90;;;;;;4992993;28;20492;-63
2023/01/20 13:05:44;;;;;;;6.97;1.50;;;12.90;99.90;;;;;;4992195;28;20042;-59
2023/01/20 13:08:26;;;;;;;8.18;2.08;;;13.10;99.90;;;;;;4970495;28;20042;-59
2023/01/20 13:11:12;;;;;;;8.63;1.45;;;13.00;99.90;;;;;;4992720;28;20486;-60
2023/01/20 13:13:50;;;;;;;3.67;1.10;;;13.00;99.90;;;;;;4975431;28;20498;-58
2023/01/20 13:16:45;;;;;;;9.20;2.38;;;13.10;99.90;;;;;;4990943;28;20046;-59
2023/01/20 13:19:23;;;;;;;5.45;1.38;;;13.10;99.90;;;;;;5004933;28;20066;-65
2023/01/20 13:21:51;;;;;;;6.07;1.23;;;13.10;99.90;;;;;;4992340;28;20049;-63
2023/01/20 13:24:34;;;;;;;8.40;1.40;;;13.20;99.90;;;;;;4992319;28;20046;-64
2023/01/20 13:27:02;;;;;;;8.82;1.58;;;13.40;99.90;;;;;;4992632;28;20042;-62
2023/01/20 13:29:36;;;;;;;7.40;1.30;;;13.40;99.90;;;;;;4990548;28;20050;-65
2023/01/20 13:32:36;;;;;;;4.03;1.10;;;13.40;99.90;;;;;;4989968;28;20046;-60
2023/01/20 13:35:22;;;;;;;5.80;1.38;;;13.50;99.90;;;;;;4987404;28;20069;-62
2023/01/20 13:37:52;;;;;;;3.95;1.08;;;13.60;99.90;;;;;;4991816;28;20042;-65
2023/01/20 13:40:35;;;;;;;5.47;1.25;;;13.00;99.90;;;;;;5023025;28;20046;-65